Time;durP1;ratioP1;P1;durP2;ratioP2;P2;SDS_P1;SDS_P2;PMS_P1;PMS_P2;Temp;Humidity;BMP_temperature;BMP_pressure;BME280_temperature;BME280_humidity;BME280_pressure;Samples;Min_cycle;Max_cycle;Signal;HPM_P1;HPM_P2
2024/04/07 05:19:27;;;;;;;;;;;;;;;;;;3256337;26;19926;-49
2024/04/07 05:21:52;;;;;;;;;;;;;;;;;;4992046;28;19913;-52
2024/04/07 05:24:19;;;;;;;;;;;;;;;;;;4991649;28;19952;-51
2024/04/07 05:26:45;;;;;;;;;;;;;;;;;;4991916;28;19914;-52
2024/04/07 05:29:11;;;;;;;;;;;;;;;;;;4991630;28;20371;-51
2024/04/07 05:31:36;;;;;;;;;;;;;;;;;;4992541;28;19909;-49
2024/04/07 05:34:02;;;;;;;;;;;;;;;;;;4991603;28;19917;-52
2024/04/07 05:36:28;;;;;;;;;;;;;;;;;;4991871;28;20363;-52
2024/04/07 05:38:54;;;;;;;;;;;;;;;;;;4991501;28;19949;-50
2024/04/07 05:41:20;;;;;;;;;;;;;;;;;;4991776;28;19910;-53
2024/04/07 05:43:46;;;;;;;;;;;;;;;;;;4991514;28;19914;-49
2024/04/07 05:46:12;;;;;;;;;;;;;;;;;;4991655;28;19910;-52
2024/04/07 05:48:38;;;;;;;;;;;;;;;;;;4989599;28;19910;-52
2024/04/07 05:51:04;;;;;;;;;;;;;;;;;;4991965;28;19921;-51
2024/04/07 05:53:30;;;;;;;;;;;;;;;;;;4991734;28;19910;-49
2024/04/07 05:55:56;;;;;;;;;;;;;;;;;;4989171;28;19910;-49
2024/04/07 05:58:22;;;;;;;;;;;;;;;;;;4990245;28;19916;-51
2024/04/07 06:00:48;;;;;;;;;;;;;;;;;;4991339;28;19909;-52
2024/04/07 06:03:14;;;;;;;;;;;;;;;;;;4991333;28;19949;-50
2024/04/07 06:05:40;;;;;;;;;;;;;;;;;;4991255;28;19910;-52
2024/04/07 06:08:06;;;;;;;;;;;;;;;;;;4991579;28;19917;-52
2024/04/07 06:10:32;;;;;;;;;;;;;;;;;;4991128;28;19910;-52
2024/04/07 06:12:58;;;;;;;;;;;;;;;;;;4991408;28;19945;-53
2024/04/07 06:15:23;;;;;;;;;;;;;;;;;;4991267;28;19973;-51
2024/04/07 06:17:49;;;;;;;;;;;;;;;;;;4991015;28;19916;-53
2024/04/07 06:20:15;;;;;;;;;;;;;;;;;;4991162;28;19918;-52
2024/04/07 06:22:41;;;;;;;;;;;;;;;;;;4991010;28;19910;-51
2024/04/07 06:25:07;;;;;;;;;;;;;;;;;;4991351;28;19914;-52
2024/04/07 06:27:33;;;;;;;;;;;;;;;;;;4990891;28;20007;-51
2024/04/07 06:29:59;;;;;;;;;;;;;;;;;;4991253;28;19917;-52
2024/04/07 06:32:25;;;;;;;;;;;;;;;;;;4990962;28;20438;-51
2024/04/07 06:34:51;;;;;;;;;;;;;;;;;;4991082;28;19910;-49
2024/04/07 06:37:17;;;;;;;;;;;;;;;;;;4991037;28;19965;-52
2024/04/07 06:39:43;;;;;;;;;;;;;;;;;;4990982;28;19910;-50
2024/04/07 06:42:09;;;;;;;;;;;;;;;;;;4991318;28;20001;-51
2024/04/07 06:44:35;;;;;;;;;;;;;;;;;;4991021;28;19914;-48
2024/04/07 06:47:01;;;;;;;;;;;;;;;;;;4990880;28;19910;-52
2024/04/07 06:49:27;;;;;;;;;;;;;;;;;;4990877;28;19938;-51
2024/04/07 06:51:52;;;;;;;;;;;;;;;;;;4990952;28;19909;-52
2024/04/07 06:54:18;;;;;;;;;;;;;;;;;;4990945;28;19910;-50
2024/04/07 06:56:45;;;;;;;;;;;;;;;;;;4990864;28;19914;-51
2024/04/07 06:59:10;;;;;;;;;;;;;;;;;;4991161;28;19916;-52
2024/04/07 07:01:36;;;;;;;;;;;;;;;;;;4990787;28;20004;-48
2024/04/07 07:04:04;;;;;;;;;;;;;;;;;;4990717;28;19914;-50
2024/04/07 07:06:31;;;;;;;;;;;;;;;;;;4990696;28;19909;-52
2024/04/07 07:08:57;;;;;;;;;;;;;;;;;;4990712;28;20279;-52
2024/04/07 07:11:23;;;;;;;;;;;;;;;;;;4992844;28;19917;-50
2024/04/07 07:13:49;;;;;;;;;;;;;;;;;;4994440;28;19906;-50
2024/04/07 07:16:14;;;;;;;;;;;;;;;;;;4994133;28;19917;-51
2024/04/07 07:18:40;;;;;;;;;;;;;;;;;;4994496;28;20302;-51
2024/04/07 07:21:06;;;;;;;;;;;;;;;;;;4994071;28;19918;-50
2024/04/07 07:23:32;;;;;;;;;;;;;;;;;;4994067;28;20311;-51
2024/04/07 07:25:58;;;;;;;;;;;;;;;;;;4994104;28;20279;-51
2024/04/07 07:28:25;;;;;;;;;;;;;;;;;;4992010;28;19918;-49
2024/04/07 07:30:51;;;;;;;;;;;;;;;;;;4994433;28;20514;-48
2024/04/07 07:33:17;;;;;;;;;;;;;;;;;;4994309;28;19910;-53
2024/04/07 07:35:43;;;;;;;;;;;;;;;;;;4995133;28;19953;-52
2024/04/07 07:38:09;;;;;;;;;;;;;;;;;;4994317;28;19933;-52
2024/04/07 07:40:35;;;;;;;;;;;;;;;;;;4994746;28;20498;-51
2024/04/07 07:43:00;;;;;;;;;;;;;;;;;;4994275;28;19914;-51
2024/04/07 07:45:26;;;;;;;;;;;;;;;;;;4994249;28;20341;-53
2024/04/07 07:47:52;;;;;;;;;;;;;;;;;;4994377;28;19914;-51
2024/04/07 07:50:18;;;;;;;;;;;;;;;;;;4994561;28;19953;-52
2024/04/07 07:52:44;;;;;;;;;;;;;;;;;;4994622;28;19956;-51
2024/04/07 07:55:10;;;;;;;;;;;;;;;;;;4994498;28;19912;-51
2024/04/07 07:57:36;;;;;;;;;;;;;;;;;;4994078;28;20302;-53
2024/04/07 08:00:04;;;;;;;;;;;;;;;;;;5002941;28;19968;-51
2024/04/07 08:02:30;;;;;;;;;;;;;;;;;;5012641;28;20033;-52
2024/04/07 08:04:56;;;;;;;;;;;;;;;;;;5013815;28;19933;-53
2024/04/07 08:07:22;;;;;;;;;;;;;;;;;;5013511;28;20004;-52
2024/04/07 08:09:48;;;;;;;;;;;;;;;;;;5012370;28;20371;-53
2024/04/07 08:12:14;;;;;;;;;;;;;;;;;;5011354;28;19963;-52
2024/04/07 08:14:40;;;;;;;;;;;;;;;;;;5013548;28;20260;-53
2024/04/07 08:17:06;;;;;;;;;;;;;;;;;;5009743;28;19925;-52
2024/04/07 08:19:32;;;;;;;;;;;;;;;;;;4993921;28;20000;-53
2024/04/07 08:21:58;;;;;;;;;;;;;;;;;;4993880;28;19960;-53
2024/04/07 08:24:24;;;;;;;;;;;;;;;;;;5004508;28;19928;-53
2024/04/07 08:26:50;;;;;;;;;;;;;;;;;;5012478;28;19910;-52
2024/04/07 08:29:16;;;;;;;;;;;;;;;;;;5012563;28;19909;-51
2024/04/07 08:31:41;;;;;;;;;;;;;;;;;;5012464;28;19951;-50
2024/04/07 08:34:08;;;;;;;;;;;;;;;;;;4996682;28;19972;-52
2024/04/07 08:36:34;;;;;;;;;;;;;;;;;;4986829;28;20364;-53
2024/04/07 08:39:00;;;;;;;;;;;;;;;;;;5000024;28;19935;-53
2024/04/07 08:41:26;;;;;;;;;;;;;;;;;;5012231;28;19933;-53
2024/04/07 08:43:51;;;;;;;;;;;;;;;;;;4994401;28;20379;-52
2024/04/07 08:46:17;;;;;;;;;;;;;;;;;;4994977;28;19937;-52
2024/04/07 08:48:45;;;;;;;;;;;;;;;;;;4992863;28;19933;-53
2024/04/07 08:51:11;;;;;;;;;;;;;;;;;;4992342;28;19910;-51
2024/04/07 08:53:37;;;;;;;;;;;;;;;;;;4992508;28;19910;-51
2024/04/07 08:56:02;;;;;;;;;;;;;;;;;;4992393;28;20379;-52
2024/04/07 08:58:28;;;;;;;;;;;;;;;;;;4992438;28;19917;-50
2024/04/07 09:00:54;;;;;;;;;;;;;;;;;;4990699;28;20412;-52
2024/04/07 09:03:20;;;;;;;;;;;;;;;;;;4990042;28;19921;-53
2024/04/07 09:05:46;;;;;;;;;;;;;;;;;;4991022;28;19933;-52
2024/04/07 09:08:12;;;;;;;;;;;;;;;;;;4992227;28;19945;-54
2024/04/07 09:10:38;;;;;;;;;;;;;;;;;;4992256;28;19914;-53
2024/04/07 09:13:04;;;;;;;;;;;;;;;;;;4991867;28;19975;-53
2024/04/07 09:15:30;;;;;;;;;;;;;;;;;;4991767;28;20161;-53
2024/04/07 09:17:56;;;;;;;;;;;;;;;;;;4991943;28;19914;-54
2024/04/07 09:20:23;;;;;;;;;;;;;;;;;;4991751;28;20295;-53
2024/04/07 09:22:49;;;;;;;;;;;;;;;;;;4991928;28;19917;-52
2024/04/07 09:25:15;;;;;;;;;;;;;;;;;;5007104;28;19910;-53
2024/04/07 09:27:41;;;;;;;;;;;;;;;;;;4985021;28;19921;-53
2024/04/07 09:30:06;;;;;;;;;;;;;;;;;;4983320;28;19917;-53
2024/04/07 09:32:32;;;;;;;;;;;;;;;;;;4991728;28;19984;-53
2024/04/07 09:34:59;;;;;;;;;;;;;;;;;;4991458;28;19910;-54
2024/04/07 09:37:25;;;;;;;;;;;;;;;;;;4991451;28;19965;-53
2024/04/07 09:39:51;;;;;;;;;;;;;;;;;;4991456;28;19910;-53
2024/04/07 09:42:17;;;;;;;;;;;;;;;;;;4991902;28;20416;-51
2024/04/07 09:44:43;;;;;;;;;;;;;;;;;;4991390;28;19964;-51
2024/04/07 09:47:10;;;;;;;;;;;;;;;;;;4996363;28;19921;-52
2024/04/07 09:49:36;;;;;;;;;;;;;;;;;;5010921;28;19916;-50
2024/04/07 09:52:03;;;;;;;;;;;;;;;;;;5011006;28;20317;-53
2024/04/07 09:54:29;;;;;;;;;;;;;;;;;;5010785;28;19910;-52
2024/04/07 09:56:55;;;;;;;;;;;;;;;;;;5010927;28;20019;-53
2024/04/07 09:59:21;;;;;;;;;;;;;;;;;;5010893;28;19964;-53
2024/04/07 10:01:47;;;;;;;;;;;;;;;;;;4987602;28;19910;-53
2024/04/07 10:04:13;;;;;;;;;;;;;;;;;;4971801;28;19968;-51
2024/04/07 10:06:38;;;;;;;;;;;;;;;;;;4971878;28;20434;-51
2024/04/07 10:09:04;;;;;;;;;;;;;;;;;;4971865;28;19920;-53
2024/04/07 10:11:30;;;;;;;;;;;;;;;;;;4971702;28;20237;-53
2024/04/07 10:13:56;;;;;;;;;;;;;;;;;;4971946;28;19910;-52
2024/04/07 10:16:22;;;;;;;;;;;;;;;;;;4971662;28;19914;-54
2024/04/07 10:18:48;;;;;;;;;;;;;;;;;;4972042;28;20292;-51
2024/04/07 10:21:14;;;;;;;;;;;;;;;;;;4971733;28;20016;-52
2024/04/07 10:23:40;;;;;;;;;;;;;;;;;;4971710;28;20380;-53
2024/04/07 10:26:06;;;;;;;;;;;;;;;;;;4971637;28;19910;-51
2024/04/07 10:28:32;;;;;;;;;;;;;;;;;;4975933;28;19910;-52
2024/04/07 10:30:58;;;;;;;;;;;;;;;;;;4984571;28;19910;-53
2024/04/07 10:33:24;;;;;;;;;;;;;;;;;;4991139;28;19913;-53
2024/04/07 10:35:50;;;;;;;;;;;;;;;;;;4991368;28;19917;-52
2024/04/07 10:38:15;;;;;;;;;;;;;;;;;;4990792;28;19917;-53
2024/04/07 10:40:41;;;;;;;;;;;;;;;;;;4988389;28;20338;-52
2024/04/07 10:43:07;;;;;;;;;;;;;;;;;;4991039;28;19914;-51
2024/04/07 10:45:33;;;;;;;;;;;;;;;;;;4991824;28;19917;-50
2024/04/07 10:47:59;;;;;;;;;;;;;;;;;;4997314;28;19925;-53
2024/04/07 10:50:25;;;;;;;;;;;;;;;;;;5014400;28;20409;-53
2024/04/07 10:52:51;;;;;;;;;;;;;;;;;;5014440;28;20417;-53
2024/04/07 10:55:17;;;;;;;;;;;;;;;;;;5014196;28;19909;-53
2024/04/07 10:57:43;;;;;;;;;;;;;;;;;;5007554;28;19977;-51
2024/04/07 11:00:08;;;;;;;;;;;;;;;;;;4996715;28;19926;-55
2024/04/07 11:02:34;;;;;;;;;;;;;;;;;;4993419;28;20268;-52
2024/04/07 11:05:00;;;;;;;;;;;;;;;;;;4998906;28;19925;-58
2024/04/07 11:07:26;;;;;;;;;;;;;;;;;;4994692;28;19928;-58
2024/04/07 11:09:53;;;;;;;;;;;;;;;;;;4991734;28;19953;-58
2024/04/07 11:12:19;;;;;;;;;;;;;;;;;;4994175;28;19910;-58
2024/04/07 11:14:45;;;;;;;;;;;;;;;;;;4994511;28;19914;-58
2024/04/07 11:17:11;;;;;;;;;;;;;;;;;;4993163;28;19949;-58
2024/04/07 11:19:37;;;;;;;;;;;;;;;;;;5002222;28;19928;-58
2024/04/07 11:22:03;;;;;;;;;;;;;;;;;;4994662;28;19920;-59
2024/04/07 11:24:29;;;;;;;;;;;;;;;;;;5005462;28;19924;-58
2024/04/07 11:26:55;;;;;;;;;;;;;;;;;;5011843;28;20371;-58
2024/04/07 11:29:20;;;;;;;;;;;;;;;;;;5008495;28;19913;-58
2024/04/07 11:31:46;;;;;;;;;;;;;;;;;;5003124;28;19968;-58
2024/04/07 11:34:12;;;;;;;;;;;;;;;;;;5000161;28;20406;-58
2024/04/07 11:36:38;;;;;;;;;;;;;;;;;;4999594;28;19914;-58
2024/04/07 11:39:04;;;;;;;;;;;;;;;;;;4993303;28;19917;-58
2024/04/07 11:41:30;;;;;;;;;;;;;;;;;;4994422;28;19913;-58
2024/04/07 11:43:56;;;;;;;;;;;;;;;;;;5009642;28;20021;-58
2024/04/07 11:46:22;;;;;;;;;;;;;;;;;;4996928;28;19914;-58
2024/04/07 11:48:48;;;;;;;;;;;;;;;;;;4997431;28;19940;-52
2024/04/07 11:51:16;;;;;;;;;;;;;;;;;;4998443;28;19918;-53
2024/04/07 11:53:46;;;;;;;;;;;;;;;;;;4997211;28;19918;-52
2024/04/07 11:56:12;;;;;;;;;;;;;;;;;;4994925;28;19914;-51
2024/04/07 11:58:37;;;;;;;;;;;;;;;;;;5006221;28;19959;-54
2024/04/07 12:01:03;;;;;;;;;;;;;;;;;;5002856;28;19926;-52
2024/04/07 12:03:29;;;;;;;;;;;;;;;;;;4999987;28;19918;-52
2024/04/07 12:05:55;;;;;;;;;;;;;;;;;;5010781;28;19968;-52
2024/04/07 12:08:21;;;;;;;;;;;;;;;;;;5005853;28;19913;-51
2024/04/07 12:10:47;;;;;;;;;;;;;;;;;;5008013;28;20391;-50
2024/04/07 12:13:13;;;;;;;;;;;;;;;;;;5001514;28;19921;-52
2024/04/07 12:15:38;;;;;;;;;;;;;;;;;;4995276;28;20437;-54
2024/04/07 12:18:04;;;;;;;;;;;;;;;;;;4992891;28;20064;-52
2024/04/07 12:20:31;;;;;;;;;;;;;;;;;;5010213;28;20299;-50
2024/04/07 12:22:56;;;;;;;;;;;;;;;;;;5009311;28;19917;-53
2024/04/07 12:25:23;;;;;;;;;;;;;;;;;;4991928;28;19917;-54
2024/04/07 12:27:49;;;;;;;;;;;;;;;;;;4991260;28;19996;-53
2024/04/07 12:30:15;;;;;;;;;;;;;;;;;;4989393;28;20410;-53
2024/04/07 12:32:40;;;;;;;;;;;;;;;;;;5004172;28;19913;-52
2024/04/07 12:35:06;;;;;;;;;;;;;;;;;;5005196;28;20334;-48
2024/04/07 12:37:32;;;;;;;;;;;;;;;;;;5010322;28;19913;-52
2024/04/07 12:39:58;;;;;;;;;;;;;;;;;;5006535;28;19941;-53
2024/04/07 12:42:26;;;;;;;;;;;;;;;;;;4991903;28;20380;-52
2024/04/07 12:44:52;;;;;;;;;;;;;;;;;;4997376;28;20140;-53
2024/04/07 12:47:22;;;;;;;;;;;;;;;;;;5009120;28;20374;-53
2024/04/07 12:49:48;;;;;;;;;;;;;;;;;;5004901;28;19983;-51
2024/04/07 12:52:14;;;;;;;;;;;;;;;;;;4990707;28;19917;-51
2024/04/07 12:54:40;;;;;;;;;;;;;;;;;;5010451;28;19949;-50
2024/04/07 12:57:06;;;;;;;;;;;;;;;;;;5007047;28;20354;-53
2024/04/07 12:59:31;;;;;;;;;;;;;;;;;;5009442;28;19914;-52
2024/04/07 13:01:58;;;;;;;;;;;;;;;;;;5009570;28;19959;-51
2024/04/07 13:04:23;;;;;;;;;;;;;;;;;;4999658;28;19972;-51
2024/04/07 13:06:49;;;;;;;;;;;;;;;;;;4990876;28;19918;-53
2024/04/07 13:09:18;;;;;;;;;;;;;;;;;;4990620;28;19914;-52
2024/04/07 13:11:44;;;;;;;;;;;;;;;;;;4999668;28;20406;-53
2024/04/07 13:14:09;;;;;;;;;;;;;;;;;;4991104;28;19914;-52
2024/04/07 13:16:35;;;;;;;;;;;;;;;;;;4990872;28;19909;-52
2024/04/07 13:19:01;;;;;;;;;;;;;;;;;;4991435;28;19914;-50
2024/04/07 13:21:27;;;;;;;;;;;;;;;;;;4999911;28;19924;-53
2024/04/07 13:23:53;;;;;;;;;;;;;;;;;;4997958;28;19976;-51
2024/04/07 13:26:19;;;;;;;;;;;;;;;;;;5007504;28;20000;-51
2024/04/07 13:28:45;;;;;;;;;;;;;;;;;;5006904;28;19914;-51
2024/04/07 13:31:11;;;;;;;;;;;;;;;;;;5006128;28;19967;-53
2024/04/07 13:33:37;;;;;;;;;;;;;;;;;;5003722;28;19929;-50
2024/04/07 13:36:03;;;;;;;;;;;;;;;;;;4995045;28;19940;-53
2024/04/07 13:38:29;;;;;;;;;;;;;;;;;;5002766;28;19922;-53
2024/04/07 13:40:55;;;;;;;;;;;;;;;;;;5000327;28;20286;-54
2024/04/07 13:43:21;;;;;;;;;;;;;;;;;;4995485;28;19917;-51
2024/04/07 13:45:47;;;;;;;;;;;;;;;;;;5002974;28;19925;-53
2024/04/07 13:48:13;;;;;;;;;;;;;;;;;;5001661;28;20338;-52
2024/04/07 13:50:38;;;;;;;;;;;;;;;;;;5002842;28;19922;-51
2024/04/07 13:53:06;;;;;;;;;;;;;;;;;;4999131;28;19968;-54
2024/04/07 13:55:32;;;;;;;;;;;;;;;;;;4998750;28;19920;-53
2024/04/07 13:57:58;;;;;;;;;;;;;;;;;;4997124;28;19913;-53
2024/04/07 14:00:24;;;;;;;;;;;;;;;;;;5007487;28;20003;-51
2024/04/07 14:02:50;;;;;;;;;;;;;;;;;;4994984;28;19953;-50
2024/04/07 14:05:17;;;;;;;;;;;;;;;;;;5004274;28;19914;-51
2024/04/07 14:07:43;;;;;;;;;;;;;;;;;;5003324;28;19917;-50
2024/04/07 14:10:09;;;;;;;;;;;;;;;;;;5000454;28;20314;-51
2024/04/07 14:12:37;;;;;;;;;;;;;;;;;;4995973;28;19914;-53
2024/04/07 14:15:03;;;;;;;;;;;;;;;;;;4989353;28;20004;-51
2024/04/07 14:17:29;;;;;;;;;;;;;;;;;;5008442;28;20093;-53
2024/04/07 14:19:55;;;;;;;;;;;;;;;;;;5007299;28;20052;-49
2024/04/07 14:22:27;;;;;;;;;;;;;;;;;;5011290;28;19921;-53
2024/04/07 14:24:53;;;;;;;;;;;;;;;;;;5003382;28;19917;-51
2024/04/07 14:27:19;;;;;;;;;;;;;;;;;;5004430;28;19913;-53
2024/04/07 14:29:45;;;;;;;;;;;;;;;;;;5011747;28;20322;-49
2024/04/07 14:32:11;;;;;;;;;;;;;;;;;;4997761;28;19920;-53
2024/04/07 14:34:37;;;;;;;;;;;;;;;;;;4993084;28;19920;-53
2024/04/07 14:37:03;;;;;;;;;;;;;;;;;;4993025;28;19921;-53
2024/04/07 14:39:29;;;;;;;;;;;;;;;;;;5004363;28;19914;-52
2024/04/07 14:41:56;;;;;;;;;;;;;;;;;;4993752;28;20325;-51
2024/04/07 14:44:23;;;;;;;;;;;;;;;;;;4993765;28;19945;-52
2024/04/07 14:46:49;;;;;;;;;;;;;;;;;;4995286;28;20008;-53
2024/04/07 14:49:15;;;;;;;;;;;;;;;;;;4992000;28;20028;-52
2024/04/07 14:51:42;;;;;;;;;;;;;;;;;;5005437;28;20450;-53
2024/04/07 14:54:08;;;;;;;;;;;;;;;;;;4993695;28;20395;-52
2024/04/07 14:56:34;;;;;;;;;;;;;;;;;;4994495;28;19920;-52
2024/04/07 14:59:00;;;;;;;;;;;;;;;;;;4994025;28;19973;-52
2024/04/07 15:01:27;;;;;;;;;;;;;;;;;;4993818;28;20418;-52
2024/04/07 15:03:54;;;;;;;;;;;;;;;;;;4992902;28;20367;-52
2024/04/07 15:06:20;;;;;;;;;;;;;;;;;;4993682;28;19910;-53
2024/04/07 15:08:46;;;;;;;;;;;;;;;;;;5007961;28;19921;-53
2024/04/07 15:11:12;;;;;;;;;;;;;;;;;;5012227;28;19945;-52
2024/04/07 15:13:38;;;;;;;;;;;;;;;;;;5001464;28;19917;-54
2024/04/07 15:16:05;;;;;;;;;;;;;;;;;;5011169;28;19917;-55
2024/04/07 15:18:31;;;;;;;;;;;;;;;;;;5007673;28;20008;-50
2024/04/07 15:20:57;;;;;;;;;;;;;;;;;;4993909;28;19964;-54
2024/04/07 15:23:23;;;;;;;;;;;;;;;;;;4992079;28;19948;-52
2024/04/07 15:25:48;;;;;;;;;;;;;;;;;;4996230;28;20044;-54
2024/04/07 15:28:15;;;;;;;;;;;;;;;;;;4993091;28;19924;-53
2024/04/07 15:30:41;;;;;;;;;;;;;;;;;;4992847;28;19922;-54
2024/04/07 15:33:07;;;;;;;;;;;;;;;;;;5005053;28;19914;-53
2024/04/07 15:35:33;;;;;;;;;;;;;;;;;;5010766;28;19914;-52
2024/04/07 15:37:58;;;;;;;;;;;;;;;;;;5003247;28;20036;-53
2024/04/07 15:40:24;;;;;;;;;;;;;;;;;;4993684;28;20571;-53
2024/04/07 15:42:50;;;;;;;;;;;;;;;;;;4998106;28;19917;-51
2024/04/07 15:45:16;;;;;;;;;;;;;;;;;;5009489;28;19913;-53
2024/04/07 15:47:42;;;;;;;;;;;;;;;;;;4992891;28;19914;-53
2024/04/07 15:50:08;;;;;;;;;;;;;;;;;;4998250;28;19914;-49
2024/04/07 15:52:34;;;;;;;;;;;;;;;;;;4991302;28;19922;-54
2024/04/07 15:54:59;;;;;;;;;;;;;;;;;;4993266;28;19921;-51
2024/04/07 15:57:25;;;;;;;;;;;;;;;;;;4991030;28;19976;-54
2024/04/07 15:59:51;;;;;;;;;;;;;;;;;;5011386;28;19914;-53
2024/04/07 16:02:17;;;;;;;;;;;;;;;;;;5009122;28;19992;-54
2024/04/07 16:04:43;;;;;;;;;;;;;;;;;;4989959;28;19925;-51
2024/04/07 16:07:09;;;;;;;;;;;;;;;;;;4988288;28;19949;-50
2024/04/07 16:09:35;;;;;;;;;;;;;;;;;;4991377;28;19940;-52
2024/04/07 16:12:01;;;;;;;;;;;;;;;;;;4997572;28;20004;-51
2024/04/07 16:14:27;;;;;;;;;;;;;;;;;;5005201;28;19914;-51
2024/04/07 16:16:55;;;;;;;;;;;;;;;;;;5010339;28;19923;-53
2024/04/07 16:19:21;;;;;;;;;;;;;;;;;;5011613;28;19917;-53
2024/04/07 16:21:47;;;;;;;;;;;;;;;;;;5005638;28;19971;-53
2024/04/07 16:24:13;;;;;;;;;;;;;;;;;;4999859;28;19917;-54
2024/04/07 16:26:39;;;;;;;;;;;;;;;;;;5002008;28;20264;-53
2024/04/07 16:29:05;;;;;;;;;;;;;;;;;;4991924;28;19914;-52
2024/04/07 16:31:31;;;;;;;;;;;;;;;;;;4989328;28;20000;-52
2024/04/07 16:33:56;;;;;;;;;;;;;;;;;;5002843;28;20004;-53
2024/04/07 16:36:22;;;;;;;;;;;;;;;;;;4989896;28;20383;-53
2024/04/07 16:38:48;;;;;;;;;;;;;;;;;;5002264;28;19917;-53
2024/04/07 16:41:14;;;;;;;;;;;;;;;;;;4982022;28;20334;-53
2024/04/07 16:43:40;;;;;;;;;;;;;;;;;;5000577;28;19925;-50
2024/04/07 16:46:06;;;;;;;;;;;;;;;;;;5011493;28;19909;-53
2024/04/07 16:48:32;;;;;;;;;;;;;;;;;;5001299;28;20292;-52
2024/04/07 16:50:58;;;;;;;;;;;;;;;;;;5001986;28;19921;-49
2024/04/07 16:53:24;;;;;;;;;;;;;;;;;;4997272;28;19925;-53
2024/04/07 16:55:50;;;;;;;;;;;;;;;;;;4998823;28;19917;-51
2024/04/07 16:58:16;;;;;;;;;;;;;;;;;;5002726;28;19917;-52
2024/04/07 17:00:41;;;;;;;;;;;;;;;;;;5004440;28;19914;-51
2024/04/07 17:03:07;;;;;;;;;;;;;;;;;;5006978;28;19913;-53
2024/04/07 17:05:33;;;;;;;;;;;;;;;;;;4996860;28;19955;-51
2024/04/07 17:07:59;;;;;;;;;;;;;;;;;;4999383;28;19959;-51
2024/04/07 17:10:25;;;;;;;;;;;;;;;;;;4995722;28;19952;-50
2024/04/07 17:12:51;;;;;;;;;;;;;;;;;;5005677;28;19913;-53
2024/04/07 17:15:17;;;;;;;;;;;;;;;;;;5006637;28;19917;-52
2024/04/07 17:17:43;;;;;;;;;;;;;;;;;;4996135;28;19921;-53
2024/04/07 17:20:09;;;;;;;;;;;;;;;;;;5002188;28;20415;-53
2024/04/07 17:22:35;;;;;;;;;;;;;;;;;;5000463;28;20004;-49
2024/04/07 17:25:00;;;;;;;;;;;;;;;;;;4998320;28;19940;-52
2024/04/07 17:27:26;;;;;;;;;;;;;;;;;;5011041;28;20100;-52
2024/04/07 17:29:52;;;;;;;;;;;;;;;;;;5008962;28;19910;-53
2024/04/07 17:32:18;;;;;;;;;;;;;;;;;;4994628;28;19917;-53
2024/04/07 17:34:44;;;;;;;;;;;;;;;;;;5001727;28;19917;-53
2024/04/07 17:37:10;;;;;;;;;;;;;;;;;;4990929;28;19918;-52
2024/04/07 17:39:36;;;;;;;;;;;;;;;;;;5001490;28;19963;-50
2024/04/07 17:42:02;;;;;;;;;;;;;;;;;;5005097;28;19921;-52
2024/04/07 17:44:28;;;;;;;;;;;;;;;;;;4991632;28;20300;-52
2024/04/07 17:46:54;;;;;;;;;;;;;;;;;;4996152;28;19924;-49
2024/04/07 17:49:20;;;;;;;;;;;;;;;;;;5001352;28;19909;-54
2024/04/07 17:51:45;;;;;;;;;;;;;;;;;;5002041;28;19968;-53
2024/04/07 17:54:11;;;;;;;;;;;;;;;;;;4989000;28;19953;-52
2024/04/07 17:56:37;;;;;;;;;;;;;;;;;;4989865;28;20410;-54
2024/04/07 17:59:03;;;;;;;;;;;;;;;;;;4993449;28;19910;-53
2024/04/07 18:01:29;;;;;;;;;;;;;;;;;;4993493;28;20342;-54
2024/04/07 18:03:55;;;;;;;;;;;;;;;;;;5001546;28;19917;-51
2024/04/07 18:08:01;;;;;;;;;;;;;;;;;;5519124;25;19931;-51
2024/04/07 18:10:27;;;;;;;;;;;;;;;;;;5514556;25;19933;-48
2024/04/07 18:12:53;;;;;;;;;;;;;;;;;;5512528;25;20354;-47
2024/04/07 18:15:19;;;;;;;;;;;;;;;;;;5509233;25;19927;-52
2024/04/07 18:17:44;;;;;;;;;;;;;;;;;;5521162;25;19975;-52
2024/04/07 18:20:10;;;;;;;;;;;;;;;;;;5511237;25;19928;-51
2024/04/07 18:22:36;;;;;;;;;;;;;;;;;;5523117;25;19995;-50
2024/04/07 18:25:02;;;;;;;;;;;;;;;;;;5532998;25;20355;-51
2024/04/07 18:27:29;;;;;;;;;;;;;;;;;;5522248;25;19927;-49
2024/04/07 18:29:55;;;;;;;;;;;;;;;;;;5525112;25;20253;-51
2024/04/07 18:32:21;;;;;;;;;;;;;;;;;;5525530;25;19938;-48
2024/04/07 18:34:47;;;;;;;;;;;;;;;;;;5520365;25;19935;-51
2024/04/07 18:37:13;;;;;;;;;;;;;;;;;;5522118;25;19935;-51
2024/04/07 18:39:39;;;;;;;;;;;;;;;;;;5502800;26;19940;-51
2024/04/07 18:42:05;;;;;;;;;;;;;;;;;;5518441;25;19999;-49
2024/04/07 18:44:31;;;;;;;;;;;;;;;;;;5531659;25;20349;-51
2024/04/07 18:46:56;;;;;;;;;;;;;;;;;;5518396;25;19931;-51
2024/04/07 18:49:22;;;;;;;;;;;;;;;;;;5525789;25;20292;-51
2024/04/07 18:51:49;;;;;;;;;;;;;;;;;;5519683;25;19935;-52
2024/04/07 18:54:15;;;;;;;;;;;;;;;;;;5512779;25;20288;-51
2024/04/07 18:56:41;;;;;;;;;;;;;;;;;;5519015;25;19927;-50
2024/04/07 18:59:07;;;;;;;;;;;;;;;;;;5509644;25;19939;-47
2024/04/07 19:01:33;;;;;;;;;;;;;;;;;;5502854;26;19927;-51
2024/04/07 19:03:59;;;;;;;;;;;;;;;;;;5498366;25;19996;-51
2024/04/07 19:06:27;;;;;;;;;;;;;;;;;;5516930;25;20653;-52
2024/04/07 19:08:53;;;;;;;;;;;;;;;;;;5502059;26;20341;-51
2024/04/07 19:11:19;;;;;;;;;;;;;;;;;;5511076;25;19928;-51
2024/04/07 19:13:50;;;;;;;;;;;;;;;;;;5503884;25;20350;-51
2024/04/07 19:16:15;;;;;;;;;;;;;;;;;;5526725;25;19980;-48
2024/04/07 19:18:43;;;;;;;;;;;;;;;;;;5501394;25;20389;-51
2024/04/07 19:21:10;;;;;;;;;;;;;;;;;;5501463;26;19931;-52
2024/04/07 19:23:35;;;;;;;;;;;;;;;;;;5502457;26;20029;-52
2024/04/07 19:26:01;;;;;;;;;;;;;;;;;;5486442;26;19932;-51
2024/04/07 19:28:28;;;;;;;;;;;;;;;;;;5487580;26;19935;-50
2024/04/07 19:30:54;;;;;;;;;;;;;;;;;;5495666;26;19931;-52
2024/04/07 19:33:19;;;;;;;;;;;;;;;;;;5497451;26;19934;-52
2024/04/07 19:35:45;;;;;;;;;;;;;;;;;;5520344;26;19992;-50
2024/04/07 19:38:12;;;;;;;;;;;;;;;;;;5496458;26;20262;-50
2024/04/07 19:40:38;;;;;;;;;;;;;;;;;;5507738;26;19955;-52
2024/04/07 19:43:04;;;;;;;;;;;;;;;;;;5487887;26;19928;-51
2024/04/07 19:45:30;;;;;;;;;;;;;;;;;;5484234;26;19938;-51
2024/04/07 19:47:56;;;;;;;;;;;;;;;;;;5486436;26;19953;-51
2024/04/07 19:50:22;;;;;;;;;;;;;;;;;;5497039;26;19940;-49
2024/04/07 19:52:51;;;;;;;;;;;;;;;;;;5485915;26;19927;-48
2024/04/07 19:55:17;;;;;;;;;;;;;;;;;;5484135;26;20056;-52
2024/04/07 19:57:44;;;;;;;;;;;;;;;;;;5484654;26;19936;-50
2024/04/07 20:00:11;;;;;;;;;;;;;;;;;;5507334;26;19955;-49
2024/04/07 20:02:37;;;;;;;;;;;;;;;;;;5523873;26;19928;-52
2024/04/07 20:05:03;;;;;;;;;;;;;;;;;;5502265;26;20365;-51
2024/04/07 20:07:29;;;;;;;;;;;;;;;;;;5517663;26;19931;-49
2024/04/07 20:09:55;;;;;;;;;;;;;;;;;;5486631;26;19932;-52
2024/04/07 20:12:21;;;;;;;;;;;;;;;;;;5486508;26;19928;-50
2024/04/07 20:14:47;;;;;;;;;;;;;;;;;;5485875;26;19935;-49
2024/04/07 20:17:16;;;;;;;;;;;;;;;;;;5483843;26;19977;-50
2024/04/07 20:19:42;;;;;;;;;;;;;;;;;;5485195;26;19938;-52
2024/04/07 20:22:08;;;;;;;;;;;;;;;;;;5492540;26;19951;-51
2024/04/07 20:24:33;;;;;;;;;;;;;;;;;;5517887;26;20368;-49
2024/04/07 20:26:59;;;;;;;;;;;;;;;;;;5519755;26;19928;-51
2024/04/07 20:29:25;;;;;;;;;;;;;;;;;;5494865;26;20503;-51
2024/04/07 20:31:51;;;;;;;;;;;;;;;;;;5515868;26;19936;-51
2024/04/07 20:34:18;;;;;;;;;;;;;;;;;;5520712;26;19927;-51
2024/04/07 20:36:44;;;;;;;;;;;;;;;;;;5500128;26;19935;-52
2024/04/07 20:39:10;;;;;;;;;;;;;;;;;;5486592;26;19928;-49
2024/04/07 20:41:36;;;;;;;;;;;;;;;;;;5487758;26;19994;-52
2024/04/07 20:44:03;;;;;;;;;;;;;;;;;;5521681;26;19928;-52
2024/04/07 20:46:29;;;;;;;;;;;;;;;;;;5486121;26;19954;-52
2024/04/07 20:48:55;;;;;;;;;;;;;;;;;;5524297;25;20369;-52
2024/04/07 20:51:21;;;;;;;;;;;;;;;;;;5523531;26;19934;-53
2024/04/07 20:53:47;;;;;;;;;;;;;;;;;;5518751;26;20527;-53
2024/04/07 20:56:13;;;;;;;;;;;;;;;;;;5523529;26;19942;-52
2024/04/07 20:58:39;;;;;;;;;;;;;;;;;;5484001;26;19928;-52
2024/04/07 21:01:05;;;;;;;;;;;;;;;;;;5485095;26;19928;-52
2024/04/07 21:03:31;;;;;;;;;;;;;;;;;;5486661;26;19935;-52
2024/04/07 21:05:57;;;;;;;;;;;;;;;;;;5487164;26;20368;-52
2024/04/07 21:08:23;;;;;;;;;;;;;;;;;;5513329;26;19986;-49
2024/04/07 21:10:48;;;;;;;;;;;;;;;;;;5523257;26;19927;-51
2024/04/07 21:13:14;;;;;;;;;;;;;;;;;;5496403;26;19927;-52
2024/04/07 21:15:40;;;;;;;;;;;;;;;;;;5486254;26;19935;-52
2024/04/07 21:18:06;;;;;;;;;;;;;;;;;;5485277;26;19997;-51
2024/04/07 21:20:34;;;;;;;;;;;;;;;;;;5487218;26;19928;-52
2024/04/07 21:23:00;;;;;;;;;;;;;;;;;;5484895;26;19936;-52
2024/04/07 21:25:25;;;;;;;;;;;;;;;;;;5487584;26;20000;-51
2024/04/07 21:27:53;;;;;;;;;;;;;;;;;;5486438;26;19935;-52
2024/04/07 21:30:19;;;;;;;;;;;;;;;;;;5486560;26;20370;-51
2024/04/07 21:32:44;;;;;;;;;;;;;;;;;;5486747;26;19935;-52
2024/04/07 21:35:10;;;;;;;;;;;;;;;;;;5487185;26;19931;-50
2024/04/07 21:37:36;;;;;;;;;;;;;;;;;;5486951;26;19928;-52
2024/04/07 21:40:02;;;;;;;;;;;;;;;;;;5486996;26;19928;-52
2024/04/07 21:42:28;;;;;;;;;;;;;;;;;;5486289;26;19931;-52
2024/04/07 21:44:54;;;;;;;;;;;;;;;;;;5487535;26;20273;-51
2024/04/07 21:47:20;;;;;;;;;;;;;;;;;;5486793;26;19928;-51
2024/04/07 21:49:46;;;;;;;;;;;;;;;;;;5486728;26;20504;-50
2024/04/07 21:52:11;;;;;;;;;;;;;;;;;;5486992;26;19928;-50
2024/04/07 21:54:37;;;;;;;;;;;;;;;;;;5486998;26;19936;-52
2024/04/07 21:57:03;;;;;;;;;;;;;;;;;;5486402;26;19931;-53